Alamogordo, New Mexico
Current Conditions -  °F | °C
As of 11:58 AM on Saturday 25 Oct 2014 (Local Time) from KHMN Reporting Station
Clear Clear  
Wind Chill: 74°   Ceiling: Unl
Heat Index: 74°   Visibility: 10mi
Dew Point: 47°   Wind: 7mph
Humidity: 38%   Direction: 180°S
Pressure: 30.24"   Gusts: NA
Location:  32.9°N, 105.96°W
Report Text: KHMN 251758Z AUTO 18006KT 10SM CLR 23/08 A3024 RMK AO2 SLP186 T02340082 10234 20090 58004 $
Loading
Personal Weather Stations






























Interactive Weather Map
Tropical Storm Tracking
New forecast layout! Learn more

10-Day Weather Forecast

Advertisements
Track Severe Weather on mobile